createdAt,value
2019-01-28T00:06:20.163Z,3.40
2019-01-28T00:13:05.098Z,3.40
2019-01-28T00:19:49.761Z,3.40
2019-01-28T00:26:33.986Z,3.40
2019-01-28T00:33:18.406Z,3.40
2019-01-28T00:40:02.627Z,3.40
2019-01-28T00:46:46.849Z,3.50
2019-01-28T00:53:31.101Z,3.50
2019-01-28T01:00:18.282Z,3.50
2019-01-28T01:07:02.501Z,3.40
2019-01-28T01:13:46.788Z,3.30
2019-01-28T01:20:31.622Z,3.30
2019-01-28T01:27:16.308Z,3.40
2019-01-28T01:34:01.385Z,3.50
2019-01-28T01:40:45.629Z,3.40
2019-01-28T01:47:31.041Z,3.10
2019-01-28T01:54:15.814Z,2.70
2019-01-28T02:01:00.056Z,2.50
2019-01-28T02:07:45.191Z,2.40
2019-01-28T02:14:30.596Z,2.30
2019-01-28T02:21:15.201Z,2.10
2019-01-28T02:28:00.091Z,1.90
2019-01-28T02:34:44.754Z,1.70
2019-01-28T02:41:29.776Z,1.60
2019-01-28T02:48:16.773Z,1.40
2019-01-28T02:55:00.952Z,1.20
2019-01-28T03:01:45.136Z,0.90
2019-01-28T03:08:29.321Z,0.80
2019-01-28T03:15:13.632Z,0.60
2019-01-28T03:21:57.814Z,0.60
2019-01-28T03:28:42.038Z,1.20
2019-01-28T03:35:26.241Z,1.70
2019-01-28T03:42:10.466Z,2.10
2019-01-28T03:48:55.631Z,1.70
2019-01-28T03:55:39.890Z,1.60
2019-01-28T04:02:24.989Z,1.80
2019-01-28T04:09:36.110Z,1.80
2019-01-28T04:16:20.747Z,1.40
2019-01-28T04:45:32.122Z,2.40
2019-01-28T04:52:16.302Z,2.60
2019-01-28T04:59:00.489Z,2.60
2019-01-28T05:05:44.693Z,2.40
2019-01-28T05:12:28.895Z,2.20
2019-01-28T05:19:13.074Z,2.20
2019-01-28T05:25:57.267Z,2.50
2019-01-28T05:32:41.465Z,2.60
2019-01-28T05:39:25.702Z,2.70
2019-01-28T05:46:09.898Z,2.80
2019-01-28T05:52:54.122Z,2.80
2019-01-28T05:59:38.349Z,2.90
2019-01-28T06:06:22.552Z,2.80
2019-01-28T06:13:09.548Z,2.80
2019-01-28T06:19:53.725Z,2.80
2019-01-28T06:26:38.001Z,2.70
2019-01-28T06:33:22.205Z,2.80
2019-01-28T06:40:08.105Z,2.80
2019-01-28T06:46:52.370Z,2.80
2019-01-28T06:53:36.582Z,2.60
2019-01-28T07:00:23.662Z,2.60
2019-01-28T07:07:07.846Z,2.60
2019-01-28T07:13:52.150Z,2.70
2019-01-28T07:20:36.379Z,2.90
2019-01-28T07:27:20.584Z,3.00
2019-01-28T07:34:04.827Z,3.10
2019-01-28T07:40:49.207Z,3.20
2019-01-28T07:47:33.393Z,3.20
2019-01-28T07:54:17.610Z,3.40
2019-01-28T08:01:01.858Z,3.70
2019-01-28T08:07:46.173Z,4.10
2019-01-28T08:14:30.401Z,4.60
2019-01-28T08:21:14.690Z,5.60
2019-01-28T08:28:02.618Z,5.60
2019-01-28T08:34:46.849Z,5.20
2019-01-28T08:41:31.512Z,4.90
2019-01-28T08:48:25.092Z,5.10
2019-01-28T08:55:14.418Z,6.10
2019-01-28T09:01:55.871Z,6.70
2019-01-28T09:08:40.130Z,7.10
2019-01-28T09:15:26.427Z,6.60
2019-01-28T09:22:11.100Z,6.10
2019-01-28T09:28:55.826Z,6.10
2019-01-28T09:35:40.360Z,5.80
2019-01-28T09:42:24.613Z,5.70
2019-01-28T09:49:09.134Z,5.80
2019-01-28T09:55:53.352Z,6.10
2019-01-28T10:03:15.789Z,6.50
2019-01-28T10:10:24.561Z,7.20
2019-01-28T10:25:05.939Z,6.20
2019-01-28T10:31:50.162Z,5.90
2019-01-28T10:38:34.401Z,5.70
2019-01-28T10:45:18.730Z,5.70
2019-01-28T10:52:02.918Z,5.80
2019-01-28T10:58:47.897Z,5.90
2019-01-28T11:05:33.320Z,5.70
2019-01-28T11:12:26.164Z,5.70
2019-01-28T11:19:10.965Z,5.80
2019-01-28T11:25:56.901Z,6.00
2019-01-28T11:32:41.186Z,5.90
2019-01-28T11:39:25.358Z,5.60
2019-01-28T11:46:09.661Z,5.60
2019-01-28T11:52:53.802Z,6.00
2019-01-28T11:59:38.027Z,6.20
2019-01-28T12:06:22.261Z,6.10
2019-01-28T12:13:06.793Z,5.90
2019-01-28T12:19:50.993Z,5.90
2019-01-28T12:26:35.225Z,5.80
2019-01-28T12:40:52.680Z,5.10
2019-01-28T12:47:36.877Z,4.80
2019-01-28T12:54:21.133Z,4.80
2019-01-28T13:01:06.160Z,4.90
2019-01-28T13:07:50.421Z,4.90
2019-01-28T13:14:34.662Z,4.90
2019-01-28T13:21:18.865Z,4.90
2019-01-28T13:28:03.113Z,4.80
2019-01-28T13:34:47.300Z,4.70
2019-01-28T13:41:31.485Z,4.60
2019-01-28T13:48:15.750Z,4.50
2019-01-28T13:54:59.993Z,4.30
2019-01-28T14:01:44.298Z,4.20
2019-01-28T14:08:28.502Z,4.30
2019-01-28T14:15:16.373Z,4.20
2019-01-28T14:22:00.576Z,4.10
2019-01-28T14:28:45.414Z,4.00
2019-01-28T14:35:29.662Z,3.90
2019-01-28T14:42:13.850Z,3.80
2019-01-28T14:48:58.057Z,3.80
2019-01-28T14:55:47.396Z,3.80
2019-01-28T15:02:31.646Z,3.80
2019-01-28T15:09:15.854Z,3.90
2019-01-28T15:16:00.051Z,3.90
2019-01-28T15:22:45.457Z,3.70
2019-01-28T15:29:29.655Z,3.70
2019-01-28T15:36:13.889Z,3.70
2019-01-28T15:42:59.519Z,3.50
2019-01-28T15:49:44.263Z,3.50
2019-01-28T15:56:33.117Z,3.40
2019-01-28T16:03:17.384Z,3.30
2019-01-28T16:10:01.593Z,3.20
2019-01-28T16:16:45.812Z,3.10
2019-01-28T16:23:30.003Z,3.00
2019-01-28T16:30:17.254Z,3.00
2019-01-28T16:37:06.553Z,3.00
2019-01-28T16:43:54.477Z,3.00
2019-01-28T16:50:39.229Z,3.00
2019-01-28T16:57:23.738Z,3.00
2019-01-28T17:04:08.512Z,3.00
2019-01-28T17:10:52.993Z,3.00
2019-01-28T17:17:37.205Z,3.00
2019-01-28T17:31:40.425Z,3.10
2019-01-28T17:38:25.006Z,3.10
2019-01-28T17:45:14.099Z,3.00
2019-01-28T17:52:00.674Z,3.00
2019-01-28T17:58:45.150Z,3.00
2019-01-28T18:05:30.829Z,3.00
2019-01-28T18:12:15.642Z,3.00
2019-01-28T18:19:01.673Z,3.00
2019-01-28T18:25:51.261Z,3.00
2019-01-28T18:32:41.408Z,3.00
2019-01-28T18:39:25.658Z,3.00
2019-01-28T18:46:11.067Z,3.00
2019-01-28T18:52:55.341Z,3.10
2019-01-28T18:59:41.938Z,3.10
2019-01-28T19:06:32.302Z,3.10
2019-01-28T19:13:20.769Z,3.10
2019-01-28T19:20:30.229Z,3.10
2019-01-28T19:27:14.517Z,3.20
2019-01-28T19:33:59.817Z,3.20
2019-01-28T19:40:44.046Z,3.30
2019-01-28T19:47:28.344Z,3.30
2019-01-28T19:54:12.605Z,3.40
2019-01-28T20:00:56.891Z,3.40
2019-01-28T20:07:41.267Z,3.30
2019-01-28T20:14:26.158Z,3.40
2019-01-28T20:21:10.405Z,3.20
2019-01-28T20:27:54.667Z,2.90
2019-01-28T20:34:43.521Z,2.80
2019-01-28T20:41:23.074Z,2.90
2019-01-28T20:48:07.313Z,2.90
2019-01-28T20:54:51.949Z,2.80
2019-01-28T21:01:40.461Z,2.70
2019-01-28T21:08:25.238Z,2.50
2019-01-28T21:15:11.505Z,2.40
2019-01-28T21:21:56.566Z,2.30
2019-01-28T21:28:45.056Z,2.20
2019-01-28T21:35:34.599Z,2.20
2019-01-28T21:42:19.169Z,2.00
2019-01-28T21:49:03.421Z,1.80
2019-01-28T21:55:47.659Z,1.70
2019-01-28T22:02:31.869Z,1.80
2019-01-28T22:09:16.153Z,1.80
2019-01-28T22:16:00.991Z,1.60
2019-01-28T22:22:45.863Z,1.50
2019-01-28T22:29:30.082Z,1.50
2019-01-28T22:36:14.758Z,1.60
2019-01-28T22:42:58.986Z,1.70
2019-01-28T22:49:44.522Z,1.90
2019-01-28T22:56:28.717Z,2.00
2019-01-28T23:03:13.244Z,1.70
2019-01-28T23:09:57.461Z,1.50
2019-01-28T23:16:46.270Z,1.30
2019-01-28T23:23:30.468Z,1.10
2019-01-28T23:30:21.981Z,1.00
2019-01-28T23:37:08.058Z,0.90
2019-01-28T23:43:53.155Z,0.90
2019-01-28T23:50:52.060Z,0.90
2019-01-28T23:57:37.929Z,0.80
